createdAt,value
2022-10-16T00:44:16.123Z,13.20
2022-10-16T00:47:03.510Z,13.20
2022-10-16T00:58:36.959Z,13.10
2022-10-16T01:10:27.010Z,13.10
2022-10-16T01:19:48.900Z,13.10
2022-10-16T01:41:04.254Z,13.10
2022-10-16T01:47:12.526Z,13.10
2022-10-16T01:49:48.831Z,13.20
2022-10-16T01:52:23.316Z,13.20
2022-10-16T01:55:06.033Z,13.20
2022-10-16T02:00:42.377Z,13.20
2022-10-16T02:03:26.231Z,13.20
2022-10-16T02:08:48.765Z,13.00
2022-10-16T02:11:29.915Z,13.10
2022-10-16T02:14:12.281Z,13.00
2022-10-16T02:16:44.877Z,13.00
2022-10-16T02:19:25.724Z,13.00
2022-10-16T02:36:57.500Z,12.80
2022-10-16T02:39:34.373Z,12.80
2022-10-16T02:45:04.038Z,12.80
2022-10-16T02:53:51.280Z,12.80
2022-10-16T02:59:35.335Z,12.80
2022-10-16T03:05:18.605Z,12.80
2022-10-16T03:07:53.811Z,12.70
2022-10-16T03:10:32.141Z,12.90
2022-10-16T03:20:08.866Z,13.20
2022-10-16T03:22:43.523Z,12.50
2022-10-16T03:28:00.350Z,12.50
2022-10-16T03:38:53.633Z,12.80
2022-10-16T03:41:22.694Z,12.80
2022-10-16T03:46:44.473Z,12.80
2022-10-16T03:55:13.314Z,12.80
2022-10-16T03:57:50.650Z,12.90
2022-10-16T04:00:32.875Z,12.80
2022-10-16T04:05:46.657Z,12.80
2022-10-16T04:11:22.480Z,13.00
2022-10-16T04:16:37.551Z,13.00
2022-10-16T04:25:18.116Z,13.10
2022-10-16T04:27:51.180Z,13.10
2022-10-16T04:38:49.195Z,13.10
2022-10-16T04:41:39.632Z,13.10
2022-10-16T04:44:25.518Z,13.10
2022-10-16T04:47:09.426Z,13.10
2022-10-16T04:49:46.546Z,13.10
2022-10-16T04:55:25.399Z,13.10
2022-10-16T04:58:11.990Z,12.90
2022-10-16T05:14:43.425Z,12.90
2022-10-16T05:45:22.074Z,13.00
2022-10-16T06:00:13.592Z,13.10
2022-10-16T06:05:29.070Z,13.00
2022-10-16T06:11:02.939Z,13.00
2022-10-16T06:17:30.010Z,13.00
2022-10-16T06:31:56.777Z,13.00
2022-10-16T06:34:40.645Z,13.00
2022-10-16T06:37:24.785Z,13.00
2022-10-16T06:55:20.203Z,12.90
2022-10-16T06:57:55.857Z,13.10
2022-10-16T07:03:12.936Z,13.30
2022-10-16T07:32:47.230Z,13.50
2022-10-16T07:35:15.581Z,13.60
2022-10-16T07:37:47.197Z,13.60
2022-10-16T07:40:15.456Z,13.70
2022-10-16T07:42:50.435Z,13.60
2022-10-16T07:45:21.580Z,13.70
2022-10-16T09:33:35.490Z,19.40
2022-10-16T09:36:07.710Z,20.00
2022-10-16T09:38:37.243Z,19.80
2022-10-16T09:41:17.474Z,19.90
2022-10-16T09:43:51.204Z,19.90
2022-10-16T09:46:29.669Z,20.90
2022-10-16T09:49:00.666Z,21.20
2022-10-16T09:51:30.595Z,20.30
2022-10-16T09:54:01.430Z,21.80
2022-10-16T09:56:31.703Z,20.30
2022-10-16T09:59:01.173Z,20.40
2022-10-16T10:01:32.894Z,21.00
2022-10-16T10:04:03.847Z,20.50
2022-10-16T10:06:34.934Z,21.30
2022-10-16T10:09:08.219Z,20.50
2022-10-16T10:11:41.047Z,20.50
2022-10-16T10:14:34.435Z,20.70
2022-10-16T10:17:14.241Z,20.70
2022-10-16T10:19:49.102Z,20.80
2022-10-16T10:22:31.254Z,21.00
2022-10-16T10:25:22.022Z,21.00
2022-10-16T10:28:30.732Z,21.30
2022-10-16T10:31:24.327Z,21.40
2022-10-16T12:40:49.828Z,25.00
2022-10-16T12:43:39.951Z,24.40
2022-10-16T12:46:24.688Z,24.70
2022-10-16T12:49:06.758Z,24.60
2022-10-16T12:51:38.864Z,24.80
2022-10-16T12:54:14.910Z,24.90
2022-10-16T12:56:51.591Z,24.60
2022-10-16T12:59:34.085Z,24.60
2022-10-16T13:02:24.157Z,24.70
2022-10-16T13:05:07.387Z,24.70
2022-10-16T13:07:50.582Z,24.70
2022-10-16T13:10:27.503Z,24.50
2022-10-16T13:13:33.774Z,25.10
2022-10-16T13:16:13.544Z,25.20
2022-10-16T13:18:51.803Z,25.40
2022-10-16T13:21:31.894Z,25.70
2022-10-16T13:24:08.436Z,25.90
2022-10-16T13:26:46.960Z,26.00
2022-10-16T13:29:16.038Z,26.10
2022-10-16T13:31:46.717Z,26.10
2022-10-16T13:34:22.539Z,26.60
2022-10-16T13:36:52.804Z,26.00
2022-10-16T13:39:25.353Z,25.80
2022-10-16T13:42:09.199Z,26.00
2022-10-16T13:44:42.227Z,26.20
2022-10-16T13:47:19.103Z,26.70
2022-10-16T13:49:47.884Z,27.80
2022-10-16T13:52:21.046Z,27.60
2022-10-16T13:54:49.311Z,26.90
2022-10-16T13:57:33.343Z,26.80
2022-10-16T14:00:01.249Z,26.90
2022-10-16T14:02:35.856Z,26.40
2022-10-16T14:05:05.097Z,28.10
2022-10-16T14:07:35.078Z,27.00
2022-10-16T14:10:06.340Z,27.10
2022-10-16T14:12:35.607Z,27.00
2022-10-16T14:15:10.960Z,25.40
2022-10-16T14:17:50.386Z,26.20
2022-10-16T14:20:19.081Z,26.80
2022-10-16T14:22:47.940Z,26.80
2022-10-16T14:25:28.495Z,26.90
2022-10-16T14:28:05.373Z,26.70
2022-10-16T14:30:36.240Z,26.90
2022-10-16T14:33:07.385Z,26.60
2022-10-16T14:38:57.775Z,26.60
2022-10-16T14:44:18.603Z,26.70
2022-10-16T14:49:48.252Z,24.80
2022-10-16T14:52:16.918Z,26.20
2022-10-16T14:54:45.236Z,25.90
2022-10-16T14:57:20.021Z,25.90
2022-10-16T14:59:48.821Z,25.80
2022-10-16T15:02:25.227Z,25.80
2022-10-16T15:04:54.789Z,24.30
2022-10-16T15:07:36.563Z,25.80
2022-10-16T15:10:06.832Z,23.70
2022-10-16T15:12:37.136Z,24.90
2022-10-16T15:15:35.113Z,24.80
2022-10-16T15:18:03.793Z,24.90
2022-10-16T15:20:36.430Z,24.30
2022-10-16T15:23:18.890Z,24.20
2022-10-16T15:25:48.931Z,24.10
2022-10-16T15:28:18.199Z,23.80
2022-10-16T15:30:47.450Z,23.60
2022-10-16T15:33:17.208Z,23.60
2022-10-16T15:35:49.019Z,23.30
2022-10-16T15:38:18.782Z,23.30
2022-10-16T15:40:48.281Z,23.10
2022-10-16T15:43:16.569Z,23.10
2022-10-16T15:45:45.363Z,22.90
2022-10-16T15:48:15.263Z,22.80
2022-10-16T15:53:14.198Z,22.90
2022-10-16T15:55:42.286Z,22.40
2022-10-16T15:58:10.549Z,22.80
2022-10-16T16:00:40.650Z,22.10
2022-10-16T16:03:08.690Z,21.90
2022-10-16T16:05:44.105Z,23.30
2022-10-16T16:08:18.765Z,21.90
2022-10-16T16:10:47.392Z,21.60
2022-10-16T16:13:15.641Z,21.60
2022-10-16T16:15:44.121Z,21.70
2022-10-16T16:18:12.811Z,22.80
2022-10-16T16:20:40.851Z,21.20
2022-10-16T16:23:10.686Z,20.90
2022-10-16T16:26:08.558Z,20.80
2022-10-16T16:28:36.666Z,20.80
2022-10-16T16:31:05.504Z,20.70
2022-10-16T16:33:34.103Z,20.40
2022-10-16T16:36:03.609Z,20.40
2022-10-16T16:38:31.964Z,20.30
2022-10-16T16:40:59.881Z,20.10
2022-10-16T16:43:29.530Z,20.00
2022-10-16T16:45:57.553Z,20.00
2022-10-16T16:48:25.606Z,19.80
2022-10-16T16:50:53.441Z,19.90
2022-10-16T16:53:21.323Z,19.70
2022-10-16T16:55:49.192Z,19.60
2022-10-16T16:58:17.176Z,19.70
2022-10-16T17:03:37.785Z,20.50
2022-10-16T17:06:08.533Z,19.50
2022-10-16T17:08:37.734Z,19.40
2022-10-16T17:11:06.446Z,19.10
2022-10-16T17:13:38.513Z,19.10
2022-10-16T17:16:08.804Z,19.00
2022-10-16T17:18:37.496Z,19.00
2022-10-16T17:21:07.814Z,19.80
2022-10-16T17:23:36.992Z,18.70
2022-10-16T17:26:07.483Z,18.70
2022-10-16T17:28:35.707Z,18.60
2022-10-16T17:31:11.724Z,19.50
2022-10-16T17:33:40.171Z,19.30
2022-10-16T17:36:08.594Z,18.40
2022-10-16T17:38:36.750Z,18.40
2022-10-16T17:41:17.428Z,18.80
2022-10-16T17:43:46.022Z,18.20
2022-10-16T17:46:17.408Z,18.20
2022-10-16T17:48:49.051Z,18.30
2022-10-16T17:51:19.845Z,19.20
2022-10-16T17:53:50.591Z,18.00
2022-10-16T17:56:20.741Z,18.30
2022-10-16T17:58:51.754Z,18.10
2022-10-16T18:01:24.788Z,18.60
2022-10-16T18:03:54.840Z,18.00
2022-10-16T18:06:23.812Z,19.40
2022-10-16T18:08:52.653Z,17.80
2022-10-16T18:11:21.561Z,17.70
2022-10-16T18:13:52.651Z,17.70
2022-10-16T18:16:22.006Z,17.70
2022-10-16T18:21:28.782Z,18.20
2022-10-16T18:24:01.639Z,17.60
2022-10-16T18:26:30.970Z,17.60
2022-10-16T18:29:00.855Z,17.70
2022-10-16T18:31:33.455Z,17.40
2022-10-16T18:34:32.915Z,17.50
2022-10-16T18:42:54.745Z,17.40
2022-10-16T18:45:27.365Z,17.50
2022-10-16T18:50:29.950Z,17.40
2022-10-16T18:55:43.676Z,17.30
2022-10-16T18:58:13.287Z,16.70
2022-10-16T19:03:29.626Z,17.30
2022-10-16T19:06:04.736Z,17.20
2022-10-16T19:08:34.332Z,17.20
2022-10-16T19:13:56.285Z,17.10
2022-10-16T19:16:32.672Z,17.10
2022-10-16T19:19:09.872Z,17.10
2022-10-16T19:21:42.500Z,17.00
2022-10-16T19:36:31.165Z,16.90
2022-10-16T19:39:04.910Z,16.80
2022-10-16T19:41:46.002Z,16.90
2022-10-16T19:47:43.030Z,16.90
2022-10-16T19:50:27.694Z,16.50
2022-10-16T19:53:13.169Z,16.40
2022-10-16T20:01:32.048Z,16.30
2022-10-16T20:04:17.693Z,16.40
2022-10-16T20:32:29.373Z,16.10
2022-10-16T20:52:57.006Z,15.70
2022-10-16T20:59:04.754Z,15.60
2022-10-16T21:01:36.849Z,15.60
2022-10-16T21:07:23.057Z,15.60
2022-10-16T21:10:06.372Z,15.80
2022-10-16T21:15:32.100Z,15.40
2022-10-16T21:24:59.935Z,15.20
2022-10-16T21:27:51.868Z,15.00
2022-10-16T21:33:18.594Z,14.90
2022-10-16T21:36:10.867Z,14.90
2022-10-16T21:38:43.591Z,14.80
2022-10-16T21:47:51.518Z,14.80
2022-10-16T21:53:35.029Z,14.70
2022-10-16T21:56:22.454Z,14.70
2022-10-16T22:02:40.872Z,14.50
2022-10-16T22:05:12.800Z,14.50
2022-10-16T22:08:02.636Z,14.50
2022-10-16T22:16:24.785Z,14.30
2022-10-16T22:22:35.815Z,14.40
2022-10-16T22:27:37.529Z,14.40
2022-10-16T22:30:20.654Z,14.40
2022-10-16T22:32:51.820Z,14.50
2022-10-16T22:35:23.408Z,14.70
2022-10-16T22:37:55.507Z,14.50
2022-10-16T22:40:25.526Z,14.50
2022-10-16T22:45:42.600Z,14.50
2022-10-16T22:48:16.774Z,14.60
2022-10-16T22:50:50.740Z,14.60
2022-10-16T22:53:27.944Z,14.60
2022-10-16T22:58:44.843Z,14.50
2022-10-16T23:09:51.849Z,14.50
2022-10-16T23:12:28.797Z,14.40
2022-10-16T23:17:54.916Z,14.40
2022-10-16T23:20:23.562Z,14.30
2022-10-16T23:22:57.141Z,14.30
2022-10-16T23:25:30.364Z,14.30
2022-10-16T23:30:41.568Z,14.20
2022-10-16T23:33:10.281Z,14.30
2022-10-16T23:35:42.806Z,14.10
2022-10-16T23:38:15.781Z,14.60
2022-10-16T23:40:47.737Z,13.80
2022-10-16T23:43:30.203Z,13.90
2022-10-16T23:46:01.743Z,13.80
2022-10-16T23:48:34.294Z,13.70
2022-10-16T23:51:14.601Z,13.60
2022-10-16T23:53:44.813Z,13.90
2022-10-16T23:56:21.996Z,13.70
